createdAt,value
2022-11-01T00:03:18.764Z,12.60
2022-11-01T00:08:40.580Z,12.67
2022-11-01T00:14:02.819Z,12.71
2022-11-01T00:19:24.622Z,12.62
2022-11-01T00:24:46.458Z,12.71
2022-11-01T00:30:08.685Z,12.63
2022-11-01T00:35:34.884Z,12.49
2022-11-01T00:40:56.886Z,12.26
2022-11-01T00:46:19.052Z,12.15
2022-11-01T00:51:40.842Z,12.18
2022-11-01T00:57:02.668Z,12.15
2022-11-01T01:02:24.710Z,12.12
2022-11-01T01:07:46.648Z,12.13
2022-11-01T01:13:08.519Z,12.16
2022-11-01T01:18:30.314Z,12.17
2022-11-01T01:23:52.169Z,12.22
2022-11-01T01:29:15.654Z,12.05
2022-11-01T01:34:37.497Z,12.16
2022-11-01T01:39:59.575Z,11.96
2022-11-01T01:45:32.236Z,11.83
2022-11-01T01:50:58.208Z,11.85
2022-11-01T01:56:25.132Z,11.91
2022-11-01T02:01:47.005Z,11.95
2022-11-01T02:07:09.383Z,11.89
2022-11-01T02:12:36.404Z,11.74
2022-11-01T02:18:36.955Z,11.55
2022-11-01T02:24:37.560Z,11.63
2022-11-01T02:30:08.383Z,11.68
2022-11-01T02:36:05.772Z,11.78
2022-11-01T02:41:40.986Z,11.64
2022-11-01T02:47:03.950Z,11.69
2022-11-01T02:52:28.910Z,11.63
2022-11-01T02:57:50.827Z,11.53
2022-11-01T03:03:23.806Z,11.54
2022-11-01T03:08:56.471Z,11.51
2022-11-01T03:14:25.010Z,11.50
2022-11-01T03:20:07.595Z,11.61
2022-11-01T03:25:44.000Z,11.70
2022-11-01T03:31:09.273Z,11.76
2022-11-01T03:36:36.077Z,11.78
2022-11-01T03:42:03.418Z,11.67
2022-11-01T03:47:25.774Z,11.54
2022-11-01T03:52:47.916Z,11.62
2022-11-01T03:58:09.943Z,11.61
2022-11-01T04:03:31.739Z,11.50
2022-11-01T04:08:53.571Z,11.43
2022-11-01T04:14:15.377Z,11.44
2022-11-01T04:19:37.200Z,11.47
2022-11-01T04:24:59.016Z,11.40
2022-11-01T04:30:20.931Z,11.37
2022-11-01T04:35:42.776Z,11.15
2022-11-01T04:41:04.654Z,11.22
2022-11-01T04:46:30.071Z,11.26
2022-11-01T04:51:51.884Z,11.32
2022-11-01T04:57:13.747Z,11.50
2022-11-01T05:02:35.561Z,11.44
2022-11-01T05:08:05.991Z,11.59
2022-11-01T05:13:27.784Z,11.49
2022-11-01T05:18:49.600Z,11.58
2022-11-01T05:24:11.403Z,11.54
2022-11-01T05:29:33.599Z,11.59
2022-11-01T05:34:55.555Z,11.61
2022-11-01T05:40:17.430Z,11.41
2022-11-01T05:45:39.217Z,11.58
2022-11-01T05:51:01.017Z,11.74
2022-11-01T05:56:22.809Z,11.71
2022-11-01T06:01:44.733Z,11.69
2022-11-01T06:07:06.662Z,11.57
2022-11-01T06:12:28.462Z,11.55
2022-11-01T06:17:57.511Z,11.59
2022-11-01T06:23:19.368Z,11.55
2022-11-01T06:28:41.159Z,11.39
2022-11-01T06:34:04.531Z,11.40
2022-11-01T06:39:26.830Z,11.42
2022-11-01T06:44:48.697Z,11.48
2022-11-01T06:50:10.509Z,11.60
2022-11-01T06:55:32.331Z,11.53
2022-11-01T07:00:54.475Z,11.45
2022-11-01T07:06:16.459Z,11.63
2022-11-01T07:11:38.280Z,11.74
2022-11-01T07:17:00.121Z,11.87
2022-11-01T07:22:21.907Z,12.00
2022-11-01T07:27:43.731Z,12.05
2022-11-01T07:33:05.997Z,11.99
2022-11-01T07:38:28.264Z,12.17
2022-11-01T07:43:50.079Z,12.22
2022-11-01T07:49:11.868Z,12.30
2022-11-01T07:54:33.658Z,12.29
2022-11-01T07:59:55.634Z,12.25
2022-11-01T08:05:17.789Z,12.31
2022-11-01T08:10:40.181Z,12.14
2022-11-01T08:16:02.162Z,12.40
2022-11-01T08:21:23.975Z,12.39
2022-11-01T08:26:45.872Z,12.77
2022-11-01T08:32:07.707Z,12.49
2022-11-01T08:37:29.541Z,12.33
2022-11-01T08:42:51.855Z,12.39
2022-11-01T08:48:14.009Z,12.83
2022-11-01T08:53:35.840Z,13.01
2022-11-01T08:58:57.768Z,13.03
2022-11-01T09:04:19.757Z,13.07
2022-11-01T09:09:41.612Z,12.91
2022-11-01T09:15:05.127Z,12.75
2022-11-01T09:20:26.943Z,13.12
2022-11-01T09:25:48.934Z,12.93
2022-11-01T09:31:20.504Z,12.97
2022-11-01T09:36:42.513Z,13.12
2022-11-01T09:42:10.478Z,12.62
2022-11-01T09:47:33.822Z,12.62
2022-11-01T09:52:57.149Z,12.74
2022-11-01T09:58:40.807Z,12.90
2022-11-01T10:04:10.070Z,13.23
2022-11-01T10:09:51.952Z,13.34
2022-11-01T10:15:19.253Z,13.23
2022-11-01T10:20:41.890Z,13.18
2022-11-01T10:26:06.140Z,13.55
2022-11-01T10:31:29.798Z,13.73
2022-11-01T10:36:55.899Z,13.82
2022-11-01T10:42:17.712Z,13.75
2022-11-01T10:47:39.525Z,13.86
2022-11-01T10:53:08.336Z,13.64
2022-11-01T10:59:15.008Z,13.52
2022-11-01T11:04:36.976Z,13.52
2022-11-01T11:15:49.255Z,13.24
2022-11-01T11:21:12.719Z,13.00
2022-11-01T11:26:39.184Z,12.97
2022-11-01T11:32:01.676Z,12.55
2022-11-01T11:37:26.103Z,12.95
2022-11-01T11:42:48.964Z,13.23
2022-11-01T11:48:23.102Z,13.22
2022-11-01T11:54:04.322Z,13.25
2022-11-01T11:59:29.223Z,12.99
2022-11-01T12:04:54.121Z,12.97
2022-11-01T12:10:45.882Z,12.63
2022-11-01T12:22:01.804Z,12.30
2022-11-01T12:27:25.199Z,12.15
2022-11-01T12:32:53.058Z,12.05
2022-11-01T12:38:53.104Z,12.37
2022-11-01T12:44:26.950Z,12.48
2022-11-01T12:49:54.918Z,12.52
2022-11-01T12:55:37.802Z,12.25
2022-11-01T13:01:14.609Z,12.41
2022-11-01T13:06:55.245Z,12.47
2022-11-01T13:12:22.982Z,12.05
2022-11-01T13:17:49.158Z,11.86
2022-11-01T13:23:20.044Z,12.14
2022-11-01T13:29:03.217Z,12.22
2022-11-01T13:34:41.777Z,12.16
2022-11-01T13:40:30.300Z,11.91
2022-11-01T13:46:13.116Z,11.79
2022-11-01T13:51:39.185Z,11.83
2022-11-01T13:57:06.864Z,12.05
2022-11-01T14:02:32.961Z,11.82
2022-11-01T14:08:04.307Z,11.90
2022-11-01T14:13:44.556Z,11.79
2022-11-01T14:19:17.522Z,11.87
2022-11-01T14:25:02.777Z,11.85
2022-11-01T14:30:30.183Z,11.79
2022-11-01T14:35:56.329Z,11.95
2022-11-01T14:41:19.979Z,11.89
2022-11-01T14:46:46.756Z,12.15
2022-11-01T14:52:15.952Z,12.12
2022-11-01T14:57:37.795Z,12.19
2022-11-01T15:03:01.222Z,12.13
2022-11-01T15:08:30.663Z,12.27
2022-11-01T15:13:54.742Z,12.25
2022-11-01T15:19:21.263Z,12.17
2022-11-01T15:24:47.064Z,12.20
2022-11-01T15:30:20.921Z,12.30
2022-11-01T15:35:42.907Z,12.21
2022-11-01T15:41:28.055Z,12.41
2022-11-01T15:46:51.463Z,12.46
2022-11-01T15:52:20.051Z,12.29
2022-11-01T15:57:45.751Z,12.31
2022-11-01T16:03:17.090Z,12.42
2022-11-01T16:08:54.911Z,12.40
2022-11-01T16:14:36.306Z,12.43
2022-11-01T16:19:59.833Z,12.48
2022-11-01T16:25:23.713Z,12.48
2022-11-01T16:30:46.865Z,12.64
2022-11-01T16:36:17.886Z,12.58
2022-11-01T16:41:40.988Z,12.64
2022-11-01T16:47:03.324Z,12.60
2022-11-01T16:52:25.115Z,12.58
2022-11-01T16:57:46.960Z,12.47
2022-11-01T17:03:08.806Z,12.53
2022-11-01T17:08:31.762Z,12.43
2022-11-01T17:13:53.588Z,12.32
2022-11-01T17:19:44.633Z,12.24
2022-11-01T17:25:07.151Z,12.07
2022-11-01T17:30:28.951Z,12.14
2022-11-01T17:35:50.996Z,12.18
2022-11-01T17:41:18.131Z,12.24
2022-11-01T17:46:39.934Z,12.27
2022-11-01T17:52:01.762Z,12.36
2022-11-01T17:57:23.593Z,12.31
2022-11-01T18:02:45.377Z,12.29
2022-11-01T18:08:16.760Z,12.26
2022-11-01T18:13:50.162Z,12.27
2022-11-01T18:19:20.900Z,12.26
2022-11-01T18:25:09.078Z,12.32
2022-11-01T18:30:30.897Z,12.32
2022-11-01T18:36:10.987Z,12.34
2022-11-01T18:41:32.826Z,12.39
2022-11-01T18:47:04.688Z,12.37
2022-11-01T18:52:27.370Z,12.28
2022-11-01T18:57:49.173Z,12.12
2022-11-01T19:03:12.867Z,12.08
2022-11-01T19:08:34.714Z,12.07
2022-11-01T19:13:59.541Z,11.82
2022-11-01T19:19:21.563Z,11.65
2022-11-01T19:24:43.371Z,11.74
2022-11-01T19:30:19.667Z,11.69
2022-11-01T19:35:41.960Z,11.55
2022-11-01T19:41:04.773Z,11.72
2022-11-01T19:46:26.624Z,11.60
2022-11-01T19:52:13.724Z,11.65
2022-11-01T19:57:37.616Z,11.68
2022-11-01T20:03:01.976Z,11.60
2022-11-01T20:08:33.292Z,11.82
2022-11-01T20:13:55.144Z,11.85
2022-11-01T20:19:17.871Z,11.73
2022-11-01T20:24:39.997Z,11.87
2022-11-01T20:30:01.849Z,11.80
2022-11-01T20:35:23.670Z,11.91
2022-11-01T20:40:45.480Z,11.86
2022-11-01T20:46:07.438Z,11.94
2022-11-01T20:51:29.270Z,11.91
2022-11-01T20:56:51.203Z,11.83
2022-11-01T21:02:13.136Z,11.81
2022-11-01T21:07:35.075Z,11.81
2022-11-01T21:12:57.569Z,11.85
2022-11-01T21:18:19.332Z,11.89
2022-11-01T21:23:43.819Z,11.92
2022-11-01T21:29:19.290Z,12.05
2022-11-01T21:34:41.098Z,12.02
2022-11-01T21:40:22.464Z,12.01
2022-11-01T21:45:46.350Z,12.09
2022-11-01T21:51:08.186Z,12.02
2022-11-01T21:56:30.184Z,12.06
2022-11-01T22:01:52.102Z,11.83
2022-11-01T22:07:14.050Z,11.91
2022-11-01T22:12:35.849Z,11.74
2022-11-01T22:17:57.708Z,11.83
2022-11-01T22:23:19.492Z,11.73
2022-11-01T22:28:41.284Z,11.83
2022-11-01T22:34:03.246Z,11.73
2022-11-01T22:39:26.048Z,11.66
2022-11-01T22:44:50.128Z,11.79
2022-11-01T22:50:14.218Z,11.84
2022-11-01T22:55:41.438Z,11.71
2022-11-01T23:01:19.484Z,11.67
2022-11-01T23:06:45.493Z,11.54
2022-11-01T23:12:21.875Z,11.41
2022-11-01T23:17:43.866Z,11.55
2022-11-01T23:23:11.100Z,11.63
2022-11-01T23:28:33.298Z,11.67
2022-11-01T23:33:55.505Z,11.75
2022-11-01T23:39:17.737Z,11.73
2022-11-01T23:44:40.357Z,11.75
2022-11-01T23:50:10.386Z,11.76
2022-11-01T23:55:45.484Z,11.51
